Vremea acum in Bucuresti - Romania

Vrei sa afli care e starea vremii acum in Bucuresti - Romania? Dorim sa iti furnizam starea vremii pentru Bucuresti - Romania. Starea vremii Bucuresti - Romania pentru astazi.

Vremea acum in Bucuresti

Temperatura: 26 °C

Este: Senin
Se simte ca: 24.7 °C
Innorat: 0 %
Precipitatii: %
Presiune atmosferica: 1012 hPa
Umiditate: 32%
Vizibilitate: 10 km
Vantul bate din WSW cu 15.1 km/h

Evolutia vremii in Bucuresti pe ore

Ora: 05:00
Temperatura: °C
Sansa de precipitatii: %
Ora Descriere Temp Se simte Precipitatii Umiditate Vant
00:00Senin17.1°17.1°0%49%ESE 9 KM/H
01:00Senin16.6°16.6°0%50%ESE 7.2 KM/H
02:00Senin16°16°0%52%E 6.5 KM/H
03:00Senin15.4°15.4°0%55%NE 5.8 KM/H
04:00Senin14.9°15.2°0%57%NE 5.8 KM/H
05:00Senin14.4°14.4°0%59%NNE 1.8 KM/H
06:00Senin14.1°14.1°0%60%NW 0.7 KM/H
07:00Partial innorat15.2°15.2°0%56%NW 2.9 KM/H
08:00Senin16.9°16.9°0%50%NNW 2.2 KM/H
09:00Senin18.9°18.9°0%43%WSW 4.7 KM/H
10:00Senin20.8°20.8°0%38%SW 9 KM/H
11:00Senin22.2°23.6°0%34%WSW 11.2 KM/H
12:00Senin23.7°24°0%30%WSW 13 KM/H
13:00Senin23.7°23.6°0%26%WSW 13.7 KM/H
14:00Senin24.9°24.1°0%24%WSW 14.8 KM/H
15:00Senin25.7°24.5°0%23%WSW 14.8 KM/H
16:00Senin26.1°24.8°0%22%WSW 14 KM/H
17:00Senin26°24.7°0%22%WSW 14.4 KM/H
18:00Senin24.4°24°0%26%WSW 10.8 KM/H
19:00Senin22.8°23.5°0%30%WSW 10.4 KM/H
20:00Senin22.4°23.7°0%33%WSW 9.4 KM/H
21:00Senin22.2°23.8°0%36%WSW 9 KM/H
22:00Senin21.7°21.7°0%39%SW 8.3 KM/H
23:00Senin21.3°21.3°0%41%SW 8.6 KM/H




tutorials